Aviation Digital Data Service (ADDS)

Output produced by METARs form (2156 UTC 19 February 2018)
found at http://www.aviationweather.gov/adds/metars/
 
FNBG 191600Z 29011KT 9999 FEW020 BKN100 29/23 Q1007
TAF FNBG 191045Z 1912/1924 30010KT 9999 FEW015 BKN050 
     PROB30 
     TEMPO 1913/1917 24005G15KT 9000 FEW020 FEW025CB SCT050 
     BECMG 1920/1922 18008KT 8000 -RADZ FEW012 FEW020CB BKN030
       
FNCA 191600Z 12004KT 9999 FEW010 SCT020 BKN080 26/25 Q1010
TAF AMD FNCA 191300Z 1912/1924 26010KT 3000 TS SHRA SCT008 FEW023CB BKN040 
     TEMPO 1914/1918 5000 TSRA SCT010 FEW022CB BKN030 
     BECMG 1919/1921 VRB03KT 8000 FEW015 BKN020
       
TAF FNDU 191030Z 1912/1924 VRB03KT 5000 -TSRA SCT020 FEW025CB 
     BECMG 1919/1922 9000 FEW018 SCT023
       
FNHU 191600Z 27005KT 9000 RA BKN017 FEW026CB 20/17 Q1017
TAF FNHU 191045Z 1912/1924 18010KT 9000 BKN016 FEW025CB SCT050 
     PROB30 
     TEMPO 1914/1918 24010KT 5000 TSRA BKN012 FEW020CB SCT030 
     BECMG 1918/1921 VRB03KT 7000 -DZRA SCT012 FEW018CB BKN040
       
TAF FNKU 191030Z 1912/1924 14010KT 8000 SCT020 
     PROB40 
     TEMPO 1914/1918 7000 -TSRA SCT018 FEW025CB 
     BECMG 1918/1920 5000 TSRA SCT015
       
FNLU 192200Z VRB03KT 9000 FEW020 BKN070 25/23 Q1010 NOSIG
TAF FNLU 191700Z 1912/2018 32010KT 9999 SCT018 FEW023TCU BKN040 
     BECMG 1921/1923 15005KT 8000 FEW018 BKN025 
     PROB30 
     TEMPO 2000/2004 VRB03KT 7000 -DZRA SCT020 BKN025 
     BECMG 2009/2012 27010KT 9999 SCT023
       
TAF FNUE 191030Z 1912/1924 13010KT 9999 FEW018 BKN030 
     TEMPO 1914/1918 5000 TSRA SCT020 FEW025CB 
     BECMG 1920/1922 32005KT 8000 BKN023
       
TAF FNMA 191030Z 1912/1924 34008KT 9999 SCT030 
     PROB30 
     TEMPO 1914/1918 7000 -RADZ SCT010 FEW025TCU SCT030 
     BECMG 1918/1920 9000 BKN020
       
FNBC 191600Z VRB02KT 8000 BKN012 22/// Q1011
TAF FNME 191045Z 1912/1924 09006KT 9000 SCT017 FEW025CB BKN050 
     PROB30 
     TEMPO 1914/1923 VRB03KT 6000 TSRA BKN012 FEW018CB
       
FNMO 191600Z 28010KT 9999 SCT014 27/19 Q1008
TAF FNMO 191045Z 1912/1924 29010KT 9999 FEW016 
     PROB30 
     TEMPO 1912/1917 23005G15KT 
     BECMG 1918/1921 17008KT 9000 SCT018 FEW020 BKN050
       
TAF FNGI 191045Z 1912/1924 18006KT 9999 FEW016 
     PROB30 
     TEMPO 1918/1922 24004KT 9000 -DZRA SCT017 BKN025 FEW030CB
       
FNSA 191600Z 27007KT 9999 SCT080 25/20 Q1018
TAF FNSA 191030Z 1912/1924 13010KT 9999 SCT020 
     TEMPO 1913/1917 5000 -TSRA SCT020 FEW025CB 
     BECMG 1919/1922 33005KT 9000 BKN025
       
TAF FNSO 191030Z 1912/1924 23010KT 7000 RADZ SCT015 BKN025 
     PROB40 
     TEMPO 1913/1917 6000 -TS RA BKN015 FEW025CB 
     BECMG 1919/1921 VRB03KT 9000 BKN018